메인 페이지
METAR-TAF:

METAR-TAF

공항 :

Rahim Yar Khan, 파키스탄

위도: 28-23-02N, 경도: 70-16-47E, 고도: 83m

METAR: 누락

시각: 23:43 (18:43 UTC)

예보

예보는 14 시간 33분 전, 04:10시(UTC)에 발표되었습니다.
예보 대상 시간: 20일 06시부터 20일 24시까지 (UTC)
10kt
시정: 3500m
고도 4000ft 상공 구름 보통
고도 10000ft 상공 구름 많음
연기
확률 30% :
일시적
20일 06시부터 20일 10시까지 (UTC)
25kt
시정: 2000m
고도 3000ft 상공 구름 조금, 적란운.
고도 4000ft 상공 구름 보통
고도 10000ft 상공 흐림
뇌우, 약한비
일시적
20일 12시부터 20일 16시까지 (UTC)
북동20kt, 순간 최대 풍속 30kt
시정: 1500m
고도 3000ft 상공 구름 조금, 적란운.
고도 4000ft 상공 구름 보통
고도 10000ft 상공 흐림
뇌우, 비

TAF: OPRK 200410Z 2006/2024 36010KT 3500 FU SCT040 BKN100 TX16/2010Z PROB30 TEMPO 2006/2010 36025KT 2000 -TSRA FEW030CB SCT040 OVC100 TEMPO 2012/2016 05020G30KT 1500 TSRA FEW030CB SCT040 OVC100

4,000개 이상의 공항 관측 자료 및 예보 (METAR 및 TAF 보고).

지도상에서 검색 가능한 기상관측소가 노란 점과 빨간 점으로 표시되어 있습니다.

기상관측소 명을 보려면 표시 위로 마우스를 이동하세요.

날씨 관측과 예보를 보려면 클릭하세요.

지도 변경 : 확대하려면 엑스 표시가 있는 녹색 버튼, 축소하려면 빼기 표시가 있는 녹색 버튼, 다음 페이지의 지도를 보려면 녹색 화살표를 클릭하세요.


METAR-TAF: